< < Back
Terminal Aerodrome Forecast


Current Version              Previous Versions:   1  2  3  4  5  6  7  8  9  

Terminal Aerodrome Forecast

090
FTUS44 KMOB 301120
TAFMOB
TAF
KMOB 301120Z 3012/3112 00000KT P6SM FEW020 SCT250
     FM301500 25003KT P6SM VCTS SCT030CB SCT250
      TEMPO 3017/3020 VRB25KT 2SM TSRA BKN010CB
     FM310000 21007KT P6SM SCT250=

Latest METAR

109
SAUS80 KWBC 302300
MTRMOB
METAR KMOB 302256Z 20006KT 10SM TS SCT030CB BKN250 31/24 A3000 RMK AO2
TSB15 SLP156 OCNL LTGICCG N-NE TS N-NE MOV NE CB E MOV NE TCU
W T03060244


USA.gov is the U.S. government's official web portal to all federal, state and local government web resources and services.